Latest Weather Observations for Flinders Island Airport

IDT60801

Issued at 10:35 pm EST Friday 18 April 2014 (issued every 30 minutes, with the page automatically refreshed every 10 minutes)

About weather observations | Map of weather stations | Latest weather observations for TAS | Other Formats
Station Details ID: 099005 Name: FLINDERS ISLAND AIRPORT Lat: -40.09 Lon: 148.00 Height: 9.0 m
Data from the previous 72 hours. | See also: Recent months at Flinders Island Airport
Date/Time
EST
Temp
°C
App
Temp
°C
Dew
Point
Rel
Hum
%
Delta-T
°C
Wind Press
QNH
hPa
Press
MSL
hPa
Rain
since 9 am
mm
Dir
 
Spd
km/h
Gust
km/h
Spd
kts
Gust
kts
18/10:30pm 13.7 3.7 7.7 67 3.0 WSW 50 61 27 33 1014.0 - 7.2
18/10:00pm 13.7 3.7 7.7 67 3.0 WSW 50 65 27 35 1013.9 - 7.2
18/09:30pm 13.8 4.3 6.9 63 3.3 WSW 46 57 25 31 1014.1 - 7.2
18/09:00pm 14.1 4.9 8.1 67 3.0 WSW 46 59 25 32 1013.9 1013.9 7.2
18/08:30pm 14.1 4.4 7.6 65 3.2 WSW 48 57 26 31 1013.5 - 7.2
18/08:00pm 14.3 4.6 7.4 63 3.4 WSW 48 59 26 32 1013.3 - 7.2
18/07:30pm 14.5 4.2 8.2 66 3.2 WSW 52 63 28 34 1013.0 - 7.2
18/07:00pm 14.9 4.1 7.7 62 3.6 WSW 54 63 29 34 1012.6 - 7.2
18/06:30pm 14.9 4.5 7.7 62 3.6 WSW 52 65 28 35 1012.1 - 7.2
18/06:00pm 15.0 4.0 8.5 65 3.3 WSW 56 65 30 35 1011.9 1011.9 7.2
18/05:30pm 15.2 4.8 7.7 61 3.7 WSW 52 61 28 33 1011.5 - 7.2
18/05:00pm 15.4 4.7 7.9 61 3.8 WSW 54 70 29 38 1011.0 - 7.2
18/04:30pm 15.9 4.9 9.3 65 3.4 WSW 57 70 31 38 1010.4 - 7.2
18/04:00pm 16.1 5.0 8.6 61 3.8 WSW 57 70 31 38 1009.8 - 7.2
18/03:30pm 15.5 4.5 9.0 65 3.3 WSW 57 70 31 38 1009.4 - 7.2
18/03:08pm 15.5 4.6 9.6 68 3.1 WSW 57 76 31 41 1009.3 - 7.2
18/03:00pm 15.4 4.6 9.3 67 3.1 WSW 56 67 30 36 1009.2 1009.2 7.2
18/02:47pm 15.4 4.7 9.7 69 3.0 WSW 56 74 30 40 1009.1 - 7.2
18/02:30pm 15.1 5.2 9.9 71 2.7 WSW 52 61 28 33 1009.0 - 7.2
18/02:08pm 13.9 6.8 10.9 82 1.6 WSW 39 52 21 28 1009.2 - 7.2
18/02:00pm 14.1 7.1 11.3 83 1.5 W 39 48 21 26 1008.6 - 7.2
18/01:30pm 14.8 8.4 12.1 84 1.5 WSW 37 48 20 26 1009.5 - 7.2
18/01:23pm 14.7 8.8 12.4 86 1.3 WSW 35 44 19 24 1009.5 - 7.2
18/01:00pm 14.2 10.0 12.4 89 1.0 SW 26 33 14 18 1009.5 - 7.0
18/12:40pm 13.7 8.1 12.1 90 0.9 SW 33 44 18 24 1009.6 - 6.6
18/12:36pm 13.6 7.6 12.0 90 0.9 SW 35 46 19 25 1009.7 - 6.6
18/12:30pm 13.6 6.8 12.0 90 0.9 SW 39 56 21 30 1009.7 - 6.6
18/12:26pm 13.3 5.7 11.7 90 0.9 SW 43 56 23 30 1009.7 - 6.4
18/12:05pm 13.6 4.5 11.3 86 1.2 WSW 50 70 27 38 1010.3 - 0.6
18/12:04pm 13.6 4.8 11.1 85 1.3 WSW 48 57 26 31 1010.2 - 0.4
18/12:00pm 16.6 11.3 14.2 86 1.4 WNW 35 54 19 29 1009.6 1009.6 0.2
18/11:30am 17.6 12.7 14.3 81 1.9 WNW 33 44 18 24 1009.4 - 0.0
18/11:15am 18.0 13.7 14.5 80 2.0 WNW 30 41 16 22 1009.7 - 0.0
18/11:00am 18.2 14.0 14.7 80 2.0 WNW 30 37 16 20 1009.8 - 0.0
18/10:30am 18.9 14.4 14.8 77 2.4 WNW 32 41 17 22 1010.3 - 0.0
18/10:00am 18.4 14.5 14.3 77 2.4 WNW 28 41 15 22 1010.6 - 0.0
18/09:30am 18.9 15.8 14.6 76 2.5 NW 24 33 13 18 1010.7 - 0.0
18/09:00am 18.1 16.0 13.6 75 2.6 NNW 17 28 9 15 1011.2 1011.2 0.2
18/08:30am 17.6 15.4 13.3 76 2.4 NNW 17 28 9 15 1011.6 - 0.2
18/08:00am 17.2 15.2 12.7 75 2.5 NNW 15 20 8 11 1012.0 - 0.2
18/07:30am 16.7 14.3 12.7 77 2.2 N 17 26 9 14 1012.3 - 0.2
18/07:00am 16.4 13.8 12.0 75 2.4 N 17 24 9 13 1012.1 - 0.2
18/06:30am 16.0 14.1 11.8 76 2.3 N 13 17 7 9 1012.3 - 0.2
18/06:00am 15.4 13.8 12.9 85 1.4 N 13 20 7 11 1012.5 1012.5 0.2
18/05:30am 14.9 16.1 13.8 93 0.6 CALM 0 6 0 3 1012.8 - 0.2
18/05:00am 11.7 10.8 10.8 94 0.5 NNE 6 9 3 5 1013.2 - 0.2
18/04:30am 11.0 9.4 10.1 94 0.5 NE 9 9 5 5 1013.7 - 0.2
18/04:00am 12.1 11.2 11.2 94 0.5 NE 7 9 4 5 1014.0 - 0.2
18/03:30am 12.3 11.4 11.4 94 0.5 ENE 7 9 4 5 1014.2 - 0.2
18/03:00am 11.5 10.0 10.6 94 0.5 ENE 9 13 5 7 1014.6 1014.6 0.0
18/02:30am 11.4 9.1 10.5 94 0.5 NE 13 15 7 8 1015.1 - 0.0
18/02:00am 12.5 11.7 11.7 95 0.4 NNE 7 9 4 5 1015.6 - 0.0
18/01:30am 10.6 9.5 9.8 95 0.4 E 6 9 3 5 1015.9 - 0.0
18/01:00am 9.2 6.0 8.4 95 0.4 ENE 15 17 8 9 1016.0 - 0.0
18/12:30am 9.5 6.7 8.7 95 0.4 ENE 13 15 7 8 1016.8 - 0.0
18/12:00am 9.3 6.8 8.4 94 0.4 ENE 11 13 6 7 1017.2 1017.2 0.0
 
Date/Time
EST
Temp
°C
App
Temp
°C
Dew
Point
Rel
Hum
%
Delta-T
°C
Wind Press
QNH
hPa
Press
MSL
hPa
Rain
since 9 am
mm
Dir
 
Spd
km/h
Gust
km/h
Spd
kts
Gust
kts
17/11:30pm 9.0 6.5 8.1 94 0.4 ENE 11 11 6 6 1017.6 - 0.0
17/11:00pm 8.9 6.7 7.8 93 0.5 ENE 9 11 5 6 1018.0 - 0.0
17/10:30pm 9.9 7.9 8.8 93 0.5 ENE 9 11 5 6 1018.4 - 0.0
17/10:00pm 9.6 7.2 8.5 93 0.5 ENE 11 15 6 8 1018.6 - 0.0
17/09:30pm 9.7 6.9 8.6 93 0.5 ENE 13 15 7 8 1018.8 - 0.0
17/09:00pm 10.2 7.9 9.0 92 0.6 ENE 11 13 6 7 1018.8 1018.8 0.0
17/08:30pm 10.6 8.0 9.2 91 0.7 ENE 13 15 7 8 1018.9 - 0.0
17/08:00pm 11.1 8.5 9.4 89 0.9 ENE 13 15 7 8 1019.0 - 0.0
17/07:30pm 11.4 9.5 9.1 86 1.1 NE 9 9 5 5 1018.9 - 0.0
17/07:00pm 14.0 12.7 11.3 84 1.4 N 9 11 5 6 1018.9 - 0.0
17/06:30pm 14.4 13.1 11.4 82 1.6 N 9 11 5 6 1018.9 - 0.0
17/06:00pm 16.1 15.2 12.5 79 2.0 NE 9 11 5 6 1018.8 1018.8 0.0
17/05:30pm 17.1 17.9 12.6 75 2.5 CALM 0 0 0 0 1019.0 - 0.0
17/05:00pm 17.3 18.1 12.6 74 2.6 CALM 0 0 0 0 1018.9 - 0.0
17/04:30pm 17.4 17.0 12.5 73 2.7 WSW 6 9 3 5 1019.0 - 0.0
17/04:00pm 17.6 17.2 12.9 74 2.6 WSW 7 9 4 5 1019.1 - 0.0
17/03:30pm 17.6 16.8 12.9 74 2.6 WNW 9 13 5 7 1019.4 - 0.0
17/03:00pm 17.5 16.6 12.6 73 2.7 W 9 11 5 6 1019.5 1019.5 0.0
17/02:30pm 17.5 16.2 12.6 73 2.7 WSW 11 17 6 9 1019.7 - 0.0
17/02:00pm 18.0 16.1 12.9 72 2.9 WSW 15 17 8 9 1019.7 - 0.0
17/01:30pm 19.1 16.7 11.4 61 4.2 N 15 20 8 11 1019.7 - 0.0
17/01:00pm 20.1 18.9 12.8 63 4.1 NE 11 19 6 10 1019.9 - 0.0
17/12:30pm 19.6 16.7 11.1 58 4.6 NNE 17 22 9 12 1020.3 - 0.0
17/12:00pm 20.3 18.1 12.0 59 4.6 ENE 15 19 8 10 1020.6 1020.6 0.0
17/11:30am 19.3 16.6 11.6 61 4.2 NE 17 24 9 13 1020.9 - 0.0
17/11:00am 19.1 17.9 11.7 62 4.1 NNE 9 17 5 9 1021.2 - 0.0
17/10:30am 18.6 17.4 11.7 64 3.8 NNE 9 15 5 8 1021.3 - 0.0
17/10:00am 18.5 18.1 13.1 71 3.0 NE 7 15 4 8 1021.5 - 0.0
17/09:30am 17.3 17.3 15.1 87 1.3 NNE 9 11 5 6 1021.6 - 0.0
17/09:00am 16.6 17.1 15.5 93 0.6 NE 7 11 4 6 1021.5 1021.5 0.2
17/08:30am 14.3 14.1 13.5 95 0.4 ENE 7 11 4 6 1021.3 - 0.2
17/08:00am 11.7 9.9 10.9 95 0.4 ENE 11 13 6 7 1021.2 - 0.2
17/07:30am 10.1 7.5 9.5 96 0.3 NE 13 15 7 8 1021.1 - 0.0
17/07:00am 6.9 3.9 6.2 95 0.3 ENE 11 13 6 7 1020.8 - 0.0
17/06:30am 7.9 4.8 7.1 95 0.4 ENE 13 17 7 9 1020.4 - 0.0
17/06:00am 8.5 5.5 7.7 95 0.4 ENE 13 15 7 8 1020.6 1020.6 0.0
17/05:30am 8.2 5.5 7.4 95 0.4 ENE 11 15 6 8 1020.6 - 0.0
17/05:00am 7.6 4.8 6.9 95 0.3 ENE 11 15 6 8 1020.5 - 0.0
17/04:30am 7.0 4.4 6.3 95 0.3 ENE 9 11 5 6 1020.3 - 0.0
17/04:00am 8.3 6.0 7.5 95 0.4 NE 9 9 5 5 1020.0 - 0.0
17/03:30am 8.9 6.0 8.1 95 0.4 NE 13 15 7 8 1019.8 - 0.0
17/03:00am 8.1 5.4 7.2 94 0.4 NE 11 13 6 7 1019.9 1019.9 0.0
17/02:30am 8.6 6.4 7.7 94 0.4 ENE 9 11 5 6 1020.0 - 0.0
17/02:00am 9.0 6.9 8.1 94 0.4 ENE 9 11 5 6 1020.3 - 0.0
17/01:30am 10.2 8.4 9.3 94 0.4 NE 9 9 5 5 1020.4 - 0.0
17/01:00am 10.3 8.5 9.4 94 0.4 NE 9 11 5 6 1020.6 - 0.0
17/12:30am 9.7 8.1 8.8 94 0.4 NE 7 9 4 5 1020.7 - 0.0
17/12:00am 8.4 6.4 7.3 93 0.5 ENE 7 9 4 5 1020.5 1020.5 0.0
 
Date/Time
EST
Temp
°C
App
Temp
°C
Dew
Point
Rel
Hum
%
Delta-T
°C
Wind Press
QNH
hPa
Press
MSL
hPa
Rain
since 9 am
mm
Dir
 
Spd
km/h
Gust
km/h
Spd
kts
Gust
kts
16/11:30pm 9.7 8.1 8.6 93 0.5 ENE 7 9 4 5 1020.7 - 0.0
16/11:00pm 9.0 6.8 7.9 93 0.5 NE 9 11 5 6 1020.9 - 0.0
16/10:30pm 9.3 7.2 8.2 93 0.5 ENE 9 13 5 7 1021.0 - 0.0
16/10:00pm 9.3 6.8 8.1 92 0.6 ENE 11 13 6 7 1020.9 - 0.0
16/09:30pm 9.3 7.2 8.1 92 0.6 ENE 9 13 5 7 1021.0 - 0.0
16/09:00pm 9.4 6.5 8.0 91 0.7 ENE 13 15 7 8 1021.1 1021.1 0.0
16/08:30pm 9.5 7.3 7.8 89 0.8 ENE 9 11 5 6 1021.1 - 0.0
16/08:00pm 10.2 8.1 8.3 88 0.9 E 9 11 5 6 1021.0 - 0.0
16/07:30pm 10.8 9.3 8.6 86 1.1 E 6 7 3 4 1020.8 - 0.0
16/07:00pm 11.7 10.4 9.3 85 1.2 E 6 7 3 4 1020.8 - 0.0
16/06:30pm 12.8 11.0 9.4 80 1.7 ENE 9 9 5 5 1020.7 - 0.0
16/06:00pm 14.8 13.3 10.4 75 2.3 NNE 9 11 5 6 1020.4 1020.4 0.0
16/05:30pm 15.8 14.4 11.0 73 2.6 NNE 9 13 5 7 1020.2 - 0.0
16/05:00pm 16.8 14.7 11.1 69 3.1 ENE 13 15 7 8 1019.9 - 0.0
16/04:30pm 17.5 15.1 11.3 67 3.4 E 15 20 8 11 1019.8 - 0.0
16/04:00pm 18.7 17.2 11.8 64 3.8 NE 11 17 6 9 1019.9 - 0.0
16/03:30pm 18.3 16.3 11.4 64 3.8 NE 13 19 7 10 1019.9 - 0.0
16/03:00pm 18.5 17.1 12.3 67 3.4 NNE 11 15 6 8 1020.1 1020.1 0.0
16/02:30pm 17.5 15.9 12.8 74 2.6 NNE 13 17 7 9 1020.3 - 0.0
16/02:19pm 17.1 15.8 12.6 75 2.5 NNE 11 15 6 8 1020.3 - 0.0
16/02:07pm 17.1 15.3 12.2 73 2.7 ENE 13 17 7 9 1020.3 - 0.0
16/02:00pm 17.5 16.5 12.2 71 2.9 NE 9 13 5 7 1020.2 - 0.0
16/01:30pm 17.2 15.7 11.9 71 2.9 SSW 11 17 6 9 1020.2 - 0.0
16/01:00pm 17.2 15.0 12.1 72 2.8 SSW 15 19 8 10 1020.4 - 0.0
16/12:30pm 17.8 16.2 12.7 72 2.8 SSW 13 17 7 9 1020.7 - 0.0
16/12:00pm 17.4 14.9 12.3 72 2.8 SSW 17 19 9 10 1021.2 1021.2 0.0
16/11:30am 17.1 15.4 12.4 74 2.6 SSW 13 15 7 8 1021.5 - 0.0
16/11:00am 16.9 15.2 12.6 76 2.4 SW 13 17 7 9 1021.6 - 0.0
16/10:30am 17.7 16.5 12.8 73 2.7 WSW 11 13 6 7 1021.9 - 0.0
16/10:00am 17.2 16.9 14.3 83 1.7 W 9 11 5 6 1022.0 - 0.0
16/09:30am 16.2 17.6 14.4 89 1.0 CALM 0 0 0 0 1022.3 - 0.0
16/09:00am 15.4 15.5 13.9 91 0.8 SSE 6 9 3 5 1022.6 1022.6 0.0
16/08:30am 14.8 15.1 13.5 92 0.7 NE 4 7 2 4 1022.8 - 0.0
16/08:00am 13.2 12.5 12.1 93 0.6 NE 7 9 4 5 1022.8 - 0.0
16/07:30am 11.9 11.0 10.6 92 0.7 NE 6 7 3 4 1022.8 - 0.0
16/07:00am 11.9 12.1 10.5 91 0.7 CALM 0 0 0 0 1022.4 - 0.0
16/06:48am 12.1 12.3 10.7 91 0.7 CALM 0 6 0 3 1022.3 - 0.0
16/06:34am 12.5 11.5 11.1 91 0.7 E 7 7 4 4 1022.3 - 0.0
16/06:30am 12.3 11.3 10.9 91 0.7 E 7 7 4 4 1022.4 - 0.0
16/06:18am 11.9 10.4 10.5 91 0.7 ENE 9 11 5 6 1022.3 - 0.0
16/06:12am 11.8 10.6 10.2 90 0.8 ENE 7 9 4 5 1022.3 - 0.0
16/06:00am 11.7 10.1 10.1 90 0.8 ENE 9 11 5 6 1022.3 1022.3 0.0
16/05:30am 12.7 12.6 10.9 89 0.9 ENE 2 7 1 4 1022.1 - 0.0
16/05:00am 13.0 13.0 11.2 89 0.9 E 2 9 1 5 1022.3 - 0.0
16/04:30am 13.2 12.0 11.6 90 0.9 ENE 9 13 5 7 1022.3 - 0.0
16/04:00am 11.9 10.4 10.5 91 0.7 ENE 9 11 5 6 1022.2 - 0.0
16/03:30am 11.1 9.3 9.5 90 0.8 NE 9 11 5 6 1022.3 - 0.0
16/03:00am 11.8 10.1 10.0 89 0.9 NE 9 9 5 5 1022.5 1022.5 0.0
16/02:30am 13.3 12.6 11.5 89 1.0 SE 6 9 3 5 1022.7 - 0.0
16/02:00am 13.0 12.1 11.2 89 0.9 E 7 9 4 5 1023.2 - 0.0
16/01:30am 11.4 9.7 9.7 89 0.9 E 9 13 5 7 1023.5 - 0.0
16/01:00am 12.1 10.5 10.3 89 0.9 ENE 9 11 5 6 1023.7 - 0.0
16/12:30am 10.4 8.8 8.7 89 0.8 E 7 11 4 6 1023.8 - 0.0
16/12:00am 9.8 8.0 7.9 88 0.9 E 7 13 4 7 1023.9 1023.9 0.0
 
Date/Time
EST
Temp
°C
App
Temp
°C
Dew
Point
Rel
Hum
%
Delta-T
°C
Wind Press
QNH
hPa
Press
MSL
hPa
Rain
since 9 am
mm
Dir
 
Spd
km/h
Gust
km/h
Spd
kts
Gust
kts
15/11:30pm 9.1 8.0 7.1 87 0.9 ENE 2 7 1 4 1024.1 - 0.0
15/11:00pm 10.8 8.8 8.6 86 1.1 ENE 9 11 5 6 1024.5 - 0.0

Other Formats:

Comma delimited format used in spreadsheet applications
http://www.bom.gov.au/fwo/IDT60801/IDT60801.94980.axf

JavaScript Object Notation format (JSON) in row-major order
http://www.bom.gov.au/fwo/IDT60801/IDT60801.94980.json